KBJC/BJC METAR and TAF weather

Enter ICAO airport designator
Station Type Date Time Source
KBJC METAR 2020/11/25 20:55 UTC NOAA

KBJC 252055Z 20004KT 10SM SKC 05/M04 A2981


Station Type Date Time Source
KBJC Decoded METAR 2020/11/25 20:55 UTC NOAA

Broomfield / Jeffco, CO, United States (KBJC) 39-55N 105-07W
Nov 25, 2020 - 03:55 PM EST / 2020.11.25 2055 UTC
Wind: from the SSW (200 degrees) at 5 MPH (4 KT):0
Visibility: 10 mile(s):0
Sky conditions: clear
Temperature: 41 F (5 C)
Dew Point: 24 F (-4 C)
Relative Humidity: 52%
Pressure (altimeter): 29.81 in. Hg (1009 hPa)
ob: KBJC 252055Z 20004KT 10SM SKC 05/M04 A2981
cycle: 21

Station Type Date Time Source
KBJC TAF 2020/11/25 18:06 UTC NOAA

TAF KBJC 251803Z 2518/2618 30005KT P6SM SKC
FM251900 10006KT P6SM SCT220
FM260100 30005KT P6SM SCT220
FM261400 24008KT P6SM SCT200

Example: see airport list